createdAt,value
2018-12-24T00:01:00.809Z,2.60
2018-12-24T00:03:36.650Z,2.93
2018-12-24T00:06:06.560Z,3.87
2018-12-24T00:08:36.512Z,3.33
2018-12-24T00:16:48.131Z,2.90
2018-12-24T00:19:18.034Z,4.00
2018-12-24T00:24:42.906Z,4.85
2018-12-24T00:30:07.809Z,4.57
2018-12-24T00:32:37.720Z,3.80
2018-12-24T00:35:07.637Z,3.43
2018-12-24T00:37:37.613Z,4.03
2018-12-24T00:40:07.547Z,4.30
2018-12-24T00:42:37.487Z,4.33
2018-12-24T00:50:29.919Z,4.27
2018-12-24T00:52:59.908Z,5.87
2018-12-24T00:55:29.833Z,5.97
2018-12-24T00:58:18.734Z,6.33
2018-12-24T01:00:48.711Z,6.00
2018-12-24T01:03:18.765Z,6.63
2018-12-24T01:05:48.765Z,6.57
2018-12-24T01:08:18.798Z,6.47
2018-12-24T01:10:48.743Z,6.03
2018-12-24T01:13:18.696Z,6.97
2018-12-24T01:15:48.651Z,7.20
2018-12-24T01:18:18.600Z,7.53
2018-12-24T01:20:48.594Z,6.17
2018-12-24T01:23:37.468Z,6.40
2018-12-24T01:26:07.371Z,6.20
2018-12-24T01:28:37.350Z,5.17
2018-12-24T01:31:07.391Z,6.25
2018-12-24T01:33:37.301Z,6.30
2018-12-24T01:36:07.300Z,5.50
2018-12-24T01:38:37.286Z,5.87
2018-12-24T01:41:07.199Z,6.20
2018-12-24T01:43:37.151Z,6.20
2018-12-24T01:46:07.175Z,6.00
2018-12-24T01:48:56.196Z,6.00
2018-12-24T01:57:14.825Z,6.23
2018-12-24T01:59:44.734Z,5.10
2018-12-24T02:02:14.635Z,4.95
2018-12-24T02:04:44.571Z,5.00
2018-12-24T02:07:14.524Z,5.23
2018-12-24T02:10:03.414Z,5.25
2018-12-24T02:29:02.420Z,3.77
2018-12-24T02:31:32.317Z,3.80
2018-12-24T02:39:25.751Z,3.17
2018-12-24T02:41:55.664Z,4.00
2018-12-24T02:44:25.636Z,3.70
2018-12-24T02:46:55.586Z,3.40
2018-12-24T02:49:25.634Z,3.47
2018-12-24T02:51:55.598Z,3.80
2018-12-24T02:57:58.464Z,3.30
2018-12-24T03:00:28.402Z,4.57
2018-12-24T03:05:40.102Z,3.60
2018-12-24T03:08:29.241Z,3.52
2018-12-24T03:11:19.880Z,3.37
2018-12-24T03:13:49.888Z,3.03
2018-12-24T03:16:19.821Z,3.08
2018-12-24T03:21:52.213Z,3.67
2018-12-24T03:24:54.088Z,2.57
2018-12-24T03:33:19.562Z,2.90
2018-12-24T03:35:49.495Z,2.50
2018-12-24T03:41:19.519Z,3.00
2018-12-24T03:43:49.414Z,3.33
2018-12-24T03:54:42.724Z,3.93
2018-12-24T03:57:12.688Z,4.03
2018-12-24T03:59:42.783Z,3.93
2018-12-24T04:02:12.735Z,4.70
2018-12-24T04:04:42.668Z,3.73
2018-12-24T04:07:31.534Z,3.70
2018-12-24T04:10:01.450Z,3.03
2018-12-24T04:12:50.305Z,2.83
2018-12-24T04:15:20.247Z,3.20
2018-12-24T04:17:50.151Z,2.60
2018-12-24T04:20:20.273Z,2.33
2018-12-24T04:22:50.271Z,1.92
2018-12-24T04:25:20.572Z,2.43
2018-12-24T04:28:09.429Z,1.60
2018-12-24T04:30:39.402Z,1.87
2018-12-24T04:33:09.340Z,2.50
2018-12-24T04:38:20.965Z,2.40
2018-12-24T04:40:50.905Z,1.57
2018-12-24T04:46:21.000Z,2.20
2018-12-24T04:51:32.440Z,2.30
2018-12-24T04:56:43.400Z,2.27
2018-12-24T04:59:13.330Z,2.50
2018-12-24T05:01:43.271Z,2.13
2018-12-24T05:07:12.864Z,2.67
2018-12-24T05:12:38.203Z,1.90
2018-12-24T05:15:08.141Z,2.20
2018-12-24T05:17:38.094Z,2.57
2018-12-24T05:20:46.047Z,2.20
2018-12-24T05:23:35.211Z,2.27
2018-12-24T05:26:24.063Z,2.20
2018-12-24T05:28:54.014Z,2.97
2018-12-24T05:31:24.003Z,2.50
2018-12-24T05:33:53.923Z,3.10
2018-12-24T05:36:42.754Z,2.50
2018-12-24T05:45:06.916Z,4.77
2018-12-24T05:47:55.862Z,3.93
2018-12-24T05:50:26.684Z,4.45
2018-12-24T05:53:15.781Z,3.87
2018-12-24T05:55:46.067Z,3.40
2018-12-24T05:58:34.927Z,3.33
2018-12-24T06:01:04.804Z,3.47
2018-12-24T06:03:53.710Z,4.07
2018-12-24T06:06:23.658Z,3.20
2018-12-24T06:08:53.552Z,3.70
2018-12-24T06:11:23.434Z,3.43
2018-12-24T06:13:57.928Z,3.37
2018-12-24T06:16:50.061Z,2.13
2018-12-24T06:24:43.746Z,2.30
2018-12-24T06:27:13.670Z,2.00
2018-12-24T06:29:43.593Z,1.73
2018-12-24T06:32:13.540Z,1.90
2018-12-24T06:34:43.425Z,2.10
2018-12-24T06:42:49.552Z,2.58
2018-12-24T06:45:19.450Z,2.33
2018-12-24T06:47:49.412Z,3.00
2018-12-24T06:50:19.343Z,2.10
2018-12-24T06:52:50.489Z,3.00
2018-12-24T06:55:20.510Z,1.67
2018-12-24T06:57:50.550Z,2.67
2018-12-24T07:00:39.633Z,2.70
2018-12-24T07:03:09.562Z,2.75
2018-12-24T07:05:39.443Z,3.40
2018-12-24T07:08:09.377Z,2.87
2018-12-24T07:10:39.279Z,2.95
2018-12-24T07:13:09.301Z,3.00
2018-12-24T07:15:39.180Z,3.47
2018-12-24T07:18:09.116Z,2.83
2018-12-24T07:20:39.097Z,2.92
2018-12-24T07:23:09.013Z,2.97
2018-12-24T07:25:38.922Z,2.80
2018-12-24T07:28:27.804Z,2.20
2018-12-24T07:30:57.679Z,1.87
2018-12-24T07:33:33.166Z,2.10
2018-12-24T07:36:03.193Z,2.23
2018-12-24T07:38:33.124Z,2.40
2018-12-24T07:41:03.060Z,2.60
2018-12-24T07:43:33.017Z,2.90
2018-12-24T07:46:02.995Z,2.20
2018-12-24T07:48:32.908Z,2.00
2018-12-24T07:51:02.992Z,2.40
2018-12-24T07:53:35.202Z,2.55
2018-12-24T07:59:05.034Z,2.27
2018-12-24T08:01:53.901Z,2.50
2018-12-24T08:04:23.937Z,2.37
2018-12-24T08:06:53.888Z,2.90
2018-12-24T08:09:23.933Z,2.53
2018-12-24T08:12:12.905Z,2.43
2018-12-24T08:14:43.381Z,3.00
2018-12-24T08:17:13.436Z,2.40
2018-12-24T08:19:43.266Z,2.90
2018-12-24T08:22:13.267Z,3.02
2018-12-24T08:24:43.182Z,2.33
2018-12-24T08:27:13.184Z,2.70
2018-12-24T08:29:43.187Z,3.10
2018-12-24T08:32:13.132Z,2.95
2018-12-24T08:34:43.070Z,2.75
2018-12-24T08:42:36.576Z,3.07
2018-12-24T08:45:06.494Z,2.80
2018-12-24T08:50:18.131Z,2.17
2018-12-24T08:52:48.063Z,2.33
2018-12-24T08:55:18.003Z,2.33
2018-12-24T08:57:47.991Z,2.20
2018-12-24T09:00:18.088Z,2.20
2018-12-24T09:02:49.701Z,2.80
2018-12-24T09:05:19.531Z,3.87
2018-12-24T09:08:08.437Z,3.17
2018-12-24T09:10:38.460Z,3.30
2018-12-24T09:13:08.451Z,2.70
2018-12-24T09:15:38.476Z,2.92
2018-12-24T09:18:08.626Z,2.92
2018-12-24T09:20:38.746Z,2.83
2018-12-24T09:23:08.839Z,2.67
2018-12-24T09:25:38.829Z,2.97
2018-12-24T09:28:09.450Z,2.47
2018-12-24T09:30:45.177Z,2.60
2018-12-24T09:33:15.681Z,3.20
2018-12-24T09:35:45.814Z,2.60
2018-12-24T09:38:16.533Z,3.20
2018-12-24T09:43:36.212Z,3.17
2018-12-24T09:46:25.490Z,4.77
2018-12-24T09:48:55.512Z,2.33
2018-12-24T09:51:25.657Z,3.47
2018-12-24T09:54:08.164Z,3.20
2018-12-24T09:56:38.433Z,3.90
2018-12-24T09:59:08.551Z,2.70
2018-12-24T10:01:38.601Z,2.73
2018-12-24T10:04:33.166Z,3.00
2018-12-24T10:10:13.739Z,2.43
2018-12-24T10:12:43.824Z,2.87
2018-12-24T10:15:32.968Z,2.93
2018-12-24T10:18:03.012Z,3.07
2018-12-24T10:20:32.989Z,4.62
2018-12-24T10:23:03.073Z,3.37
2018-12-24T10:25:33.214Z,3.20
2018-12-24T10:28:03.147Z,4.70
2018-12-24T10:33:28.891Z,4.60
2018-12-24T10:38:40.250Z,3.00
2018-12-24T10:41:29.769Z,3.10
2018-12-24T10:44:10.225Z,2.53
2018-12-24T10:46:59.391Z,4.00
2018-12-24T10:49:48.266Z,2.27
2018-12-24T10:52:18.239Z,2.85
2018-12-24T10:54:59.744Z,2.20
2018-12-24T10:57:29.699Z,3.70
2018-12-24T11:00:18.646Z,2.87
2018-12-24T11:05:57.077Z,3.25
2018-12-24T11:08:27.150Z,3.83
2018-12-24T11:10:57.197Z,2.87
2018-12-24T11:13:46.143Z,2.80
2018-12-24T11:16:16.062Z,2.93
2018-12-24T11:18:46.233Z,3.70
2018-12-24T11:29:21.743Z,2.43
2018-12-24T11:31:51.837Z,2.70
2018-12-24T11:34:21.851Z,2.90
2018-12-24T11:36:51.869Z,2.70
2018-12-24T11:39:22.089Z,3.27
2018-12-24T11:41:52.133Z,1.93
2018-12-24T11:44:22.170Z,3.30
2018-12-24T11:46:52.109Z,2.70
2018-12-24T11:49:22.051Z,3.00
2018-12-24T11:52:11.000Z,2.53
2018-12-24T11:54:41.067Z,2.87
2018-12-24T11:57:30.068Z,2.43
2018-12-24T12:00:00.210Z,2.90
2018-12-24T12:02:30.552Z,2.67
2018-12-24T12:05:00.504Z,2.70
2018-12-24T12:07:49.765Z,3.17
2018-12-24T12:13:33.546Z,2.40
2018-12-24T12:16:03.752Z,3.13
2018-12-24T12:18:52.957Z,2.70
2018-12-24T12:21:23.449Z,2.50
2018-12-24T12:23:53.671Z,3.27
2018-12-24T12:26:24.280Z,2.50
2018-12-24T12:28:54.228Z,2.85
2018-12-24T12:31:43.235Z,3.00
2018-12-24T12:34:13.447Z,3.35
2018-12-24T12:37:02.622Z,2.70
2018-12-24T12:39:32.732Z,2.40
2018-12-24T12:42:02.792Z,2.77
2018-12-24T12:44:32.812Z,3.03
2018-12-24T12:47:21.697Z,2.70
2018-12-24T12:49:51.729Z,2.57
2018-12-24T12:52:21.743Z,2.93
2018-12-24T12:54:51.714Z,3.30
2018-12-24T12:57:21.763Z,3.40
2018-12-24T12:59:51.767Z,2.60
2018-12-24T13:02:22.038Z,3.43
2018-12-24T13:04:52.107Z,3.08
2018-12-24T13:07:22.228Z,3.80
2018-12-24T13:09:52.225Z,3.27
2018-12-24T13:12:22.489Z,3.00
2018-12-24T13:14:52.866Z,3.20
2018-12-24T13:17:23.455Z,3.17
2018-12-24T13:19:55.480Z,2.20
2018-12-24T13:22:25.764Z,3.23
2018-12-24T13:24:56.131Z,2.37
2018-12-24T13:27:39.266Z,2.42
2018-12-24T13:30:17.834Z,2.87
2018-12-24T13:33:07.178Z,2.20
2018-12-24T13:35:37.139Z,3.13
2018-12-24T13:38:07.241Z,3.57
2018-12-24T13:40:37.575Z,2.90
2018-12-24T13:43:07.697Z,2.97
2018-12-24T13:45:37.690Z,3.10
2018-12-24T13:48:26.753Z,2.90
2018-12-24T13:54:04.912Z,2.70
2018-12-24T13:56:35.001Z,3.00
2018-12-24T13:59:24.236Z,3.37
2018-12-24T14:01:54.427Z,2.90
2018-12-24T14:04:43.851Z,4.00
2018-12-24T14:07:14.106Z,3.20
2018-12-24T14:12:33.787Z,3.27
2018-12-24T14:15:15.459Z,2.70
2018-12-24T14:17:45.595Z,2.70
2018-12-24T14:20:16.325Z,3.30
2018-12-24T14:23:05.394Z,2.70
2018-12-24T14:25:38.274Z,3.20
2018-12-24T14:28:35.264Z,2.97
2018-12-24T14:31:05.356Z,3.30
2018-12-24T14:33:54.378Z,3.75
2018-12-24T14:39:38.504Z,3.42
2018-12-24T14:42:08.687Z,3.37
2018-12-24T14:44:38.924Z,3.13
2018-12-24T14:47:09.143Z,2.47
2018-12-24T14:49:39.134Z,2.72
2018-12-24T14:52:09.129Z,2.20
2018-12-24T14:54:39.580Z,3.00
2018-12-24T14:57:10.143Z,3.17
2018-12-24T15:02:53.884Z,2.52
2018-12-24T15:05:24.408Z,2.13
2018-12-24T15:07:54.836Z,2.57
2018-12-24T15:10:42.814Z,2.83
2018-12-24T15:13:06.162Z,2.40
2018-12-24T15:15:41.109Z,2.53
2018-12-24T15:18:11.647Z,2.27
2018-12-24T15:20:41.847Z,2.70
2018-12-24T15:23:30.986Z,2.70
2018-12-24T15:28:51.008Z,3.17
2018-12-24T15:31:21.149Z,2.47
2018-12-24T15:34:10.441Z,3.50
2018-12-24T15:36:41.486Z,2.97
2018-12-24T15:39:12.220Z,2.98
2018-12-24T15:41:42.365Z,3.77
2018-12-24T15:44:12.423Z,3.33
2018-12-24T15:46:43.050Z,4.05
2018-12-24T15:49:14.048Z,2.60
2018-12-24T15:51:44.205Z,2.97
2018-12-24T15:54:33.506Z,2.77
2018-12-24T15:57:04.179Z,3.00
2018-12-24T15:59:37.321Z,3.53
2018-12-24T16:02:09.824Z,3.43
2018-12-24T16:07:42.410Z,3.30
2018-12-24T16:10:13.623Z,2.90
2018-12-24T16:12:46.199Z,3.33
2018-12-24T16:15:16.251Z,3.83
2018-12-24T16:17:58.781Z,3.57
2018-12-24T16:20:24.240Z,3.37
2018-12-24T16:22:56.852Z,5.10
2018-12-24T16:28:23.601Z,3.13
2018-12-24T16:30:53.779Z,4.97
2018-12-24T16:33:24.543Z,5.50
2018-12-24T16:35:56.953Z,6.10
2018-12-24T16:38:27.193Z,5.47
2018-12-24T16:40:58.761Z,7.00
2018-12-24T16:43:30.628Z,4.22
2018-12-24T16:46:00.704Z,5.80
2018-12-24T16:51:12.196Z,5.78
2018-12-24T16:53:42.334Z,7.67
2018-12-24T16:58:53.088Z,4.17
2018-12-24T17:01:23.279Z,5.60
2018-12-24T17:03:53.683Z,5.50
2018-12-24T17:06:35.979Z,7.23
2018-12-24T17:09:07.555Z,5.33
2018-12-24T17:11:37.572Z,7.13
2018-12-24T17:14:26.598Z,5.40
2018-12-24T17:16:56.688Z,6.30
2018-12-24T17:19:45.691Z,6.70
2018-12-24T17:22:15.709Z,6.30
2018-12-24T17:24:45.992Z,8.10
2018-12-24T17:27:30.422Z,7.40
2018-12-24T17:30:26.187Z,5.97
2018-12-24T17:32:56.119Z,4.97
2018-12-24T17:35:45.127Z,5.55
2018-12-24T17:38:15.376Z,5.95
2018-12-24T17:41:04.310Z,6.90
2018-12-24T17:43:34.479Z,13.50
2018-12-24T17:46:24.355Z,15.23
2018-12-24T17:48:54.623Z,7.30
2018-12-24T17:51:24.963Z,7.47
2018-12-24T17:53:55.131Z,6.03
2018-12-24T17:56:37.672Z,5.70
2018-12-24T17:59:08.073Z,5.70
2018-12-24T18:01:38.460Z,5.70
2018-12-24T18:04:09.182Z,5.25
2018-12-24T18:06:39.511Z,5.90
2018-12-24T18:12:12.282Z,5.37
2018-12-24T18:14:42.211Z,6.60
2018-12-24T18:20:34.346Z,6.53
2018-12-24T18:23:04.869Z,5.50
2018-12-24T18:25:34.860Z,6.97
2018-12-24T18:28:23.953Z,5.80
2018-12-24T18:31:19.931Z,4.80
2018-12-24T18:34:03.599Z,6.13
2018-12-24T18:36:33.575Z,5.77
2018-12-24T18:39:15.355Z,5.58
2018-12-24T18:41:45.329Z,4.90
2018-12-24T18:44:15.246Z,4.77
2018-12-24T18:47:23.535Z,4.70
2018-12-24T18:50:13.101Z,5.10
2018-12-24T18:53:02.044Z,4.70
2018-12-24T18:55:33.152Z,6.08
2018-12-24T18:58:04.101Z,5.70
2018-12-24T19:00:35.179Z,9.00
2018-12-24T19:06:17.702Z,6.72
2018-12-24T19:08:59.989Z,6.05
2018-12-24T19:11:33.040Z,10.43
2018-12-24T19:14:04.570Z,10.00
2018-12-24T19:16:34.669Z,7.00
2018-12-24T19:19:04.630Z,7.40
2018-12-24T19:21:54.054Z,6.53
2018-12-24T19:24:24.170Z,7.13
2018-12-24T19:27:05.993Z,8.80
2018-12-24T19:29:36.115Z,6.00
2018-12-24T19:32:06.215Z,7.33
2018-12-24T19:34:36.174Z,6.60
2018-12-24T19:42:31.586Z,5.00
2018-12-24T19:45:01.809Z,4.60
2018-12-24T19:47:53.106Z,5.75
2018-12-24T19:50:24.056Z,4.05
2018-12-24T19:52:54.175Z,4.20
2018-12-24T19:55:24.134Z,6.53
2018-12-24T19:57:54.784Z,6.40
2018-12-24T20:00:24.903Z,7.20
2018-12-24T20:02:54.971Z,7.70
2018-12-24T20:05:25.052Z,6.55
2018-12-24T20:07:55.072Z,7.35
2018-12-24T20:10:25.029Z,5.50
2018-12-24T20:12:55.076Z,6.22
2018-12-24T20:15:25.037Z,5.83
2018-12-24T20:18:14.095Z,6.07
2018-12-24T20:20:44.120Z,6.97
2018-12-24T20:23:14.201Z,5.70
2018-12-24T20:25:44.246Z,5.03
2018-12-24T20:28:14.376Z,5.87
2018-12-24T20:33:47.631Z,4.97
2018-12-24T20:36:17.654Z,5.07
2018-12-24T20:38:47.780Z,4.40
2018-12-24T20:41:17.742Z,4.53
2018-12-24T20:43:47.737Z,6.10
2018-12-24T20:46:36.879Z,5.47
2018-12-24T20:49:06.817Z,4.03
2018-12-24T20:51:36.754Z,4.07
2018-12-24T20:54:06.658Z,4.80
2018-12-24T20:56:36.607Z,4.40
2018-12-24T20:59:06.582Z,5.28
2018-12-24T21:01:55.526Z,5.00
2018-12-24T21:04:25.488Z,5.90
2018-12-24T21:06:55.512Z,6.10
2018-12-24T21:09:25.440Z,5.17
2018-12-24T21:11:55.372Z,5.97
2018-12-24T21:14:25.473Z,4.20
2018-12-24T21:22:21.230Z,4.23
2018-12-24T21:24:51.423Z,4.73
2018-12-24T21:27:21.556Z,3.60
2018-12-24T21:29:51.489Z,3.50
2018-12-24T21:32:21.668Z,4.83
2018-12-24T21:34:51.604Z,3.47
2018-12-24T21:37:40.965Z,3.77
2018-12-24T21:40:30.346Z,3.27
2018-12-24T21:43:12.295Z,3.58
2018-12-24T21:48:45.118Z,3.87
2018-12-24T21:53:56.332Z,3.45
2018-12-24T22:04:30.683Z,3.23
2018-12-24T22:07:19.679Z,3.20
2018-12-24T22:13:22.571Z,3.17
2018-12-24T22:15:53.030Z,4.23
2018-12-24T22:18:23.541Z,3.30
2018-12-24T22:20:54.202Z,4.60
2018-12-24T22:23:24.366Z,4.00
2018-12-24T22:25:55.488Z,3.52
2018-12-24T22:28:44.776Z,4.03
2018-12-24T22:31:36.117Z,3.63
2018-12-24T22:34:26.749Z,3.43
2018-12-24T22:36:56.872Z,3.33
2018-12-24T22:39:27.093Z,2.77
2018-12-24T22:42:16.095Z,2.93
2018-12-24T22:44:46.071Z,3.10
2018-12-24T22:47:16.127Z,3.90
2018-12-24T22:49:46.123Z,2.62
2018-12-24T22:52:16.295Z,3.30
2018-12-24T22:54:46.337Z,2.87
2018-12-24T22:57:16.480Z,3.17
2018-12-24T22:59:46.526Z,2.87
2018-12-24T23:02:16.582Z,2.70
2018-12-24T23:04:46.771Z,3.20
2018-12-24T23:07:16.980Z,2.73
2018-12-24T23:09:47.052Z,2.97
2018-12-24T23:12:36.276Z,2.87
2018-12-24T23:15:07.105Z,2.40
2018-12-24T23:17:37.145Z,3.07
2018-12-24T23:22:51.583Z,3.53
2018-12-24T23:25:21.723Z,4.40
2018-12-24T23:28:12.349Z,3.30
2018-12-24T23:30:42.564Z,3.17
2018-12-24T23:33:31.427Z,3.42
2018-12-24T23:36:01.549Z,3.17
2018-12-24T23:38:31.696Z,3.37
2018-12-24T23:41:03.291Z,3.30
2018-12-24T23:43:33.412Z,3.08
2018-12-24T23:49:05.715Z,4.13
2018-12-24T23:51:35.689Z,2.93
2018-12-24T23:54:24.674Z,2.80
2018-12-24T23:57:13.795Z,2.73
2018-12-24T23:59:43.745Z,3.43
